createdAt,value
2022-09-28T00:01:56.186Z,3.05
2022-09-28T00:04:24.994Z,2.45
2022-09-28T00:06:54.631Z,2.50
2022-09-28T00:09:22.857Z,2.55
2022-09-28T00:11:51.175Z,2.60
2022-09-28T00:14:19.538Z,2.30
2022-09-28T00:16:48.546Z,2.70
2022-09-28T00:19:16.882Z,3.28
2022-09-28T00:21:45.988Z,2.15
2022-09-28T00:24:17.043Z,2.60
2022-09-28T00:26:49.544Z,2.00
2022-09-28T00:29:22.876Z,2.10
2022-09-28T00:31:57.001Z,2.10
2022-09-28T00:34:25.607Z,2.08
2022-09-28T00:36:53.799Z,2.60
2022-09-28T00:39:23.775Z,2.25
2022-09-28T00:41:52.504Z,2.10
2022-09-28T00:44:50.722Z,2.60
2022-09-28T00:47:51.433Z,2.80
2022-09-28T00:50:27.354Z,2.67
2022-09-28T00:52:59.814Z,3.72
2022-09-28T00:55:36.515Z,2.72
2022-09-28T00:58:08.301Z,3.80
2022-09-28T01:00:37.315Z,3.45
2022-09-28T01:03:05.703Z,2.70
2022-09-28T01:05:35.119Z,3.20
2022-09-28T01:08:04.272Z,2.28
2022-09-28T01:10:34.545Z,3.55
2022-09-28T01:13:02.815Z,2.33
2022-09-28T01:15:36.949Z,2.50
2022-09-28T01:18:18.213Z,2.40
2022-09-28T01:21:02.123Z,2.03
2022-09-28T01:24:10.263Z,2.58
2022-09-28T01:26:58.819Z,2.20
2022-09-28T01:29:42.051Z,1.83
2022-09-28T01:32:26.820Z,1.52
2022-09-28T01:35:03.668Z,1.83
2022-09-28T01:37:40.880Z,1.60
2022-09-28T01:40:13.014Z,1.73
2022-09-28T01:42:47.816Z,1.23
2022-09-28T01:47:49.787Z,2.00
2022-09-28T01:50:23.665Z,2.40
2022-09-28T01:52:59.105Z,1.53
2022-09-28T01:55:33.196Z,1.40
2022-09-28T01:58:12.096Z,2.47
2022-09-28T02:00:44.236Z,1.80
2022-09-28T02:03:17.873Z,1.52
2022-09-28T02:05:59.811Z,1.60
2022-09-28T02:08:36.037Z,1.33
2022-09-28T02:11:11.161Z,1.35
2022-09-28T02:13:45.404Z,1.45
2022-09-28T02:16:22.786Z,1.10
2022-09-28T02:18:52.140Z,1.13
2022-09-28T02:21:33.223Z,0.98
2022-09-28T02:24:08.041Z,1.02
2022-09-28T02:26:42.243Z,1.88
2022-09-28T02:29:12.779Z,0.80
2022-09-28T02:31:41.270Z,1.08
2022-09-28T02:34:10.783Z,0.70
2022-09-28T02:36:39.531Z,0.88
2022-09-28T02:39:15.139Z,0.70
2022-09-28T02:41:56.475Z,0.60
2022-09-28T02:44:53.820Z,1.23
2022-09-28T02:47:37.675Z,0.90
2022-09-28T02:50:17.150Z,0.57
2022-09-28T02:53:36.076Z,0.77
2022-09-28T02:56:26.480Z,1.10
2022-09-28T02:59:06.206Z,0.70
2022-09-28T03:01:48.064Z,0.70
2022-09-28T03:04:29.714Z,0.60
2022-09-28T03:07:02.621Z,1.05
2022-09-28T03:09:38.227Z,0.85
2022-09-28T03:12:12.177Z,1.33
2022-09-28T03:17:11.281Z,0.80
2022-09-28T03:19:39.700Z,0.73
2022-09-28T03:22:08.017Z,0.85
2022-09-28T03:24:36.690Z,1.00
2022-09-28T03:27:05.247Z,0.70
2022-09-28T03:29:34.419Z,0.75
2022-09-28T03:32:06.229Z,1.42
2022-09-28T03:34:36.351Z,1.20
2022-09-28T03:37:04.602Z,1.38
2022-09-28T03:39:33.245Z,1.15
2022-09-28T03:42:01.813Z,0.90
2022-09-28T03:44:32.515Z,1.05
2022-09-28T03:47:00.810Z,1.42
2022-09-28T03:49:29.160Z,1.60
2022-09-28T03:51:58.781Z,1.27
2022-09-28T03:54:27.019Z,1.98
2022-09-28T03:56:55.304Z,1.90
2022-09-28T03:59:23.536Z,2.13
2022-09-28T04:01:52.554Z,1.55
2022-09-28T04:04:21.141Z,1.52
2022-09-28T04:06:49.384Z,2.22
2022-09-28T04:09:18.961Z,2.17
2022-09-28T04:12:03.425Z,2.08
2022-09-28T04:14:33.734Z,1.88
2022-09-28T04:17:01.992Z,2.25
2022-09-28T04:19:32.578Z,1.98
2022-09-28T04:22:19.968Z,2.20
2022-09-28T04:24:49.662Z,1.67
2022-09-28T04:27:36.891Z,2.00
2022-09-28T04:30:06.589Z,2.83
2022-09-28T04:32:36.472Z,2.40
2022-09-28T04:35:05.224Z,3.15
2022-09-28T04:37:33.783Z,2.47
2022-09-28T04:40:05.877Z,1.83
2022-09-28T04:42:34.442Z,2.20
2022-09-28T04:45:04.716Z,2.30
2022-09-28T04:47:35.007Z,1.80
2022-09-28T04:50:18.093Z,2.38
2022-09-28T04:53:05.535Z,2.53
2022-09-28T04:55:35.098Z,2.70
2022-09-28T04:58:05.543Z,2.33
2022-09-28T05:00:35.881Z,2.20
2022-09-28T05:03:27.308Z,2.90
2022-09-28T05:06:17.088Z,2.42
2022-09-28T05:08:47.927Z,2.38
2022-09-28T05:11:19.852Z,2.60
2022-09-28T05:13:50.296Z,3.10
2022-09-28T05:16:20.433Z,2.53
2022-09-28T05:19:07.636Z,2.08
2022-09-28T05:21:36.146Z,2.47
2022-09-28T05:24:07.453Z,2.97
2022-09-28T05:26:39.074Z,2.60
2022-09-28T05:29:09.420Z,2.35
2022-09-28T05:31:52.608Z,2.30
2022-09-28T05:34:33.835Z,2.53
2022-09-28T05:37:02.484Z,2.83
2022-09-28T05:39:32.021Z,2.95
2022-09-28T05:42:01.653Z,3.53
2022-09-28T05:44:30.469Z,3.22
2022-09-28T05:46:59.040Z,2.83
2022-09-28T05:49:29.119Z,3.25
2022-09-28T05:51:57.950Z,2.40
2022-09-28T05:54:26.655Z,2.88
2022-09-28T05:56:54.951Z,2.65
2022-09-28T05:59:24.469Z,3.15
2022-09-28T06:01:52.982Z,2.95
2022-09-28T06:04:22.432Z,3.22
2022-09-28T06:06:50.863Z,3.35
2022-09-28T06:09:21.664Z,3.65
2022-09-28T06:12:12.215Z,2.97
2022-09-28T06:14:50.987Z,3.45
2022-09-28T06:17:19.604Z,3.50
2022-09-28T06:19:54.711Z,3.00
2022-09-28T06:22:43.249Z,2.30
2022-09-28T06:25:11.549Z,2.83
2022-09-28T06:27:42.495Z,2.25
2022-09-28T06:30:13.737Z,2.53
2022-09-28T06:32:42.426Z,2.45
2022-09-28T06:35:11.108Z,2.72
2022-09-28T06:37:39.767Z,2.70
2022-09-28T06:40:09.469Z,2.67
2022-09-28T06:42:38.096Z,2.83
2022-09-28T06:45:31.485Z,1.90
2022-09-28T06:48:22.672Z,2.00
2022-09-28T06:50:51.759Z,1.95
2022-09-28T06:53:32.679Z,1.13
2022-09-28T06:56:12.409Z,1.13
2022-09-28T06:58:40.691Z,1.00
2022-09-28T07:01:11.979Z,0.75
2022-09-28T07:03:55.524Z,0.73
2022-09-28T07:06:48.744Z,0.82
2022-09-28T07:09:41.414Z,0.88
2022-09-28T07:12:21.750Z,1.02
2022-09-28T07:15:00.520Z,0.80
2022-09-28T07:17:31.583Z,0.50
2022-09-28T07:20:14.806Z,0.68
2022-09-28T07:22:48.682Z,0.93
2022-09-28T07:25:21.484Z,0.68
2022-09-28T07:28:09.840Z,0.63
2022-09-28T07:30:58.729Z,0.52
2022-09-28T07:33:51.555Z,0.95
2022-09-28T07:36:35.187Z,0.80
2022-09-28T07:39:04.453Z,0.43
2022-09-28T07:41:34.996Z,1.33
2022-09-28T07:44:06.479Z,0.45
2022-09-28T07:46:37.011Z,0.40
2022-09-28T07:49:16.675Z,0.95
2022-09-28T07:52:15.864Z,0.45
2022-09-28T07:55:06.855Z,0.68
2022-09-28T07:58:05.327Z,1.05
2022-09-28T08:01:01.062Z,0.75
2022-09-28T08:03:29.861Z,0.95
2022-09-28T08:06:05.927Z,0.65
2022-09-28T08:08:35.688Z,0.82
2022-09-28T08:11:04.341Z,0.63
2022-09-28T08:13:55.331Z,0.85
2022-09-28T08:16:47.514Z,0.85
2022-09-28T08:19:55.736Z,0.85
2022-09-28T08:22:25.423Z,0.55
2022-09-28T08:24:56.867Z,0.98
2022-09-28T08:27:25.334Z,0.90
2022-09-28T08:29:53.544Z,0.50
2022-09-28T08:32:42.522Z,0.75
2022-09-28T08:35:31.453Z,0.57
2022-09-28T08:38:36.468Z,0.80
2022-09-28T08:41:25.967Z,0.60
2022-09-28T08:44:23.799Z,0.68
2022-09-28T08:47:39.802Z,1.20
2022-09-28T08:50:32.375Z,0.57
2022-09-28T08:53:42.639Z,0.80
2022-09-28T08:56:30.333Z,0.98
2022-09-28T08:59:03.824Z,0.73
2022-09-28T09:01:40.181Z,0.98
2022-09-28T09:04:13.693Z,0.93
2022-09-28T09:07:32.173Z,0.45
2022-09-28T09:10:26.219Z,0.80
2022-09-28T09:13:05.927Z,0.60
2022-09-28T09:15:48.105Z,0.85
2022-09-28T09:18:39.084Z,0.65
2022-09-28T09:21:45.740Z,1.05
2022-09-28T09:24:27.489Z,0.75
2022-09-28T09:27:07.265Z,0.77
2022-09-28T09:30:02.751Z,0.47
2022-09-28T09:33:02.492Z,0.65
2022-09-28T09:35:56.607Z,0.47
2022-09-28T09:39:01.108Z,0.40
2022-09-28T09:41:52.189Z,0.40
2022-09-28T09:44:55.511Z,0.40
2022-09-28T09:48:04.299Z,0.50
2022-09-28T09:50:40.901Z,0.30
2022-09-28T09:53:22.977Z,0.40
2022-09-28T09:55:57.237Z,0.30
2022-09-28T09:58:42.695Z,0.50
2022-09-28T10:01:23.207Z,0.50
2022-09-28T10:04:20.711Z,0.43
2022-09-28T10:06:53.887Z,0.30
2022-09-28T10:09:27.438Z,0.32
2022-09-28T10:12:00.328Z,0.30
2022-09-28T10:14:28.705Z,0.40
2022-09-28T10:19:51.772Z,0.38
2022-09-28T10:22:43.476Z,0.40
2022-09-28T10:25:18.277Z,0.55
2022-09-28T10:27:50.925Z,0.50
2022-09-28T10:30:23.346Z,0.88
2022-09-28T10:32:59.215Z,0.30
2022-09-28T10:35:43.081Z,0.70
2022-09-28T10:38:18.463Z,0.45
2022-09-28T10:40:55.832Z,0.40
2022-09-28T10:44:06.034Z,0.38
2022-09-28T10:46:57.680Z,0.63
2022-09-28T10:49:28.535Z,0.35
2022-09-28T10:51:59.572Z,0.40
2022-09-28T10:54:54.621Z,0.60
2022-09-28T10:57:29.924Z,0.50
2022-09-28T11:00:27.856Z,0.50
2022-09-28T11:03:21.937Z,0.50
2022-09-28T11:06:02.407Z,0.17
2022-09-28T11:08:34.187Z,0.60
2022-09-28T11:11:07.925Z,0.30
2022-09-28T11:13:51.269Z,0.80
2022-09-28T11:16:29.621Z,0.40
2022-09-28T11:18:59.843Z,1.58
2022-09-28T11:21:32.484Z,1.30
2022-09-28T11:24:20.252Z,0.85
2022-09-28T11:26:53.425Z,1.00
2022-09-28T11:29:37.313Z,2.78
2022-09-28T11:32:44.664Z,2.55
2022-09-28T11:35:48.486Z,1.10
2022-09-28T11:38:34.101Z,1.92
2022-09-28T11:41:49.594Z,0.20
2022-09-28T11:44:40.099Z,2.00
2022-09-28T11:47:44.390Z,1.15
2022-09-28T11:50:28.564Z,8.77
2022-09-28T11:53:10.825Z,4.72
2022-09-28T11:55:46.555Z,2.65
2022-09-28T11:58:25.930Z,0.50
2022-09-28T12:01:03.728Z,0.73
2022-09-28T12:03:51.870Z,0.95
2022-09-28T12:06:25.936Z,0.60
2022-09-28T12:09:00.836Z,0.52
2022-09-28T12:11:37.470Z,0.47
2022-09-28T12:14:28.212Z,0.52
2022-09-28T12:17:07.924Z,0.40
2022-09-28T12:19:46.304Z,0.47
2022-09-28T12:22:23.421Z,0.52
2022-09-28T12:24:56.431Z,0.47
2022-09-28T12:27:33.544Z,0.47
2022-09-28T12:30:10.190Z,0.40
2022-09-28T12:32:44.040Z,0.40
2022-09-28T12:35:16.044Z,0.57
2022-09-28T12:38:21.087Z,0.63
2022-09-28T12:40:58.233Z,0.30
2022-09-28T12:44:00.477Z,0.30
2022-09-28T12:47:17.449Z,0.40
2022-09-28T12:50:37.622Z,0.40
2022-09-28T12:53:14.887Z,0.35
2022-09-28T12:55:57.807Z,0.55
2022-09-28T12:59:01.414Z,0.32
2022-09-28T13:01:52.665Z,0.50
2022-09-28T13:05:02.257Z,0.47
2022-09-28T13:07:45.114Z,0.70
2022-09-28T13:10:24.732Z,0.50
2022-09-28T13:13:18.527Z,0.80
2022-09-28T13:15:56.848Z,0.70
2022-09-28T13:18:34.770Z,0.50
2022-09-28T13:21:16.025Z,2.15
2022-09-28T13:23:47.349Z,1.67
2022-09-28T13:26:28.023Z,1.02
2022-09-28T13:29:03.506Z,0.70
2022-09-28T13:31:37.131Z,0.52
2022-09-28T13:34:18.074Z,0.45
2022-09-28T13:36:48.309Z,0.50
2022-09-28T13:39:38.423Z,0.50
2022-09-28T13:42:10.321Z,0.63
2022-09-28T13:45:22.380Z,0.68
2022-09-28T13:48:12.175Z,0.40
2022-09-28T13:51:17.960Z,0.47
2022-09-28T13:54:11.935Z,0.40
2022-09-28T13:57:24.067Z,0.65
2022-09-28T14:00:19.560Z,0.30
2022-09-28T14:02:54.576Z,1.23
2022-09-28T14:06:22.709Z,0.60
2022-09-28T14:09:24.925Z,0.45
2022-09-28T14:11:59.948Z,0.30
2022-09-28T14:14:50.573Z,0.30
2022-09-28T14:18:19.091Z,0.30
2022-09-28T14:21:24.143Z,0.77
2022-09-28T14:24:13.736Z,0.20
2022-09-28T14:27:13.904Z,0.30
2022-09-28T14:29:42.591Z,0.32
2022-09-28T14:32:25.673Z,0.20
2022-09-28T14:35:00.808Z,0.45
2022-09-28T14:37:51.164Z,0.55
2022-09-28T14:40:40.092Z,0.25
2022-09-28T14:43:26.040Z,0.52
2022-09-28T14:46:33.808Z,0.40
2022-09-28T14:49:04.297Z,0.32
2022-09-28T14:52:02.131Z,0.25
2022-09-28T14:54:46.302Z,0.20
2022-09-28T14:57:21.284Z,0.85
2022-09-28T14:59:49.819Z,0.30
2022-09-28T15:02:26.152Z,0.80
2022-09-28T15:04:59.843Z,0.40
2022-09-28T15:07:34.394Z,0.40
2022-09-28T15:10:04.213Z,0.40
2022-09-28T15:12:32.824Z,0.30
2022-09-28T15:15:04.668Z,0.40
2022-09-28T15:17:39.843Z,0.40
2022-09-28T15:20:24.355Z,0.50
2022-09-28T15:22:57.479Z,0.60
2022-09-28T15:25:29.924Z,0.40
2022-09-28T15:28:02.305Z,0.47
2022-09-28T15:30:34.036Z,0.50
2022-09-28T15:33:18.608Z,0.57
2022-09-28T15:35:51.113Z,0.30
2022-09-28T15:38:19.783Z,0.60
2022-09-28T15:40:49.959Z,1.13
2022-09-28T15:43:32.977Z,1.33
2022-09-28T15:46:18.324Z,1.60
2022-09-28T15:48:52.684Z,1.00
2022-09-28T15:51:22.023Z,0.70
2022-09-28T15:53:58.431Z,0.60
2022-09-28T15:56:29.674Z,0.40
2022-09-28T15:59:26.265Z,0.80
2022-09-28T16:02:11.243Z,2.17
2022-09-28T16:04:50.414Z,2.42
2022-09-28T16:07:25.412Z,1.70
2022-09-28T16:12:41.575Z,1.60
2022-09-28T16:15:20.308Z,2.10
2022-09-28T16:17:55.776Z,5.32
2022-09-28T16:20:31.824Z,3.03
2022-09-28T16:23:05.993Z,1.25
2022-09-28T16:25:39.002Z,0.88
2022-09-28T16:28:25.228Z,2.40
2022-09-28T16:31:02.983Z,0.88
2022-09-28T16:33:40.807Z,1.00
2022-09-28T16:36:15.412Z,1.58
2022-09-28T16:38:46.012Z,0.90
2022-09-28T16:41:17.528Z,0.57
2022-09-28T16:43:48.232Z,1.00
2022-09-28T16:46:19.494Z,0.77
2022-09-28T16:48:49.905Z,0.75
2022-09-28T16:51:19.556Z,0.50
2022-09-28T16:54:05.377Z,0.65
2022-09-28T16:56:35.160Z,0.60
2022-09-28T16:59:05.368Z,0.47
2022-09-28T17:01:34.232Z,0.68
2022-09-28T17:04:03.312Z,0.52
2022-09-28T17:06:33.597Z,0.60
2022-09-28T17:09:06.734Z,0.60
2022-09-28T17:11:34.991Z,0.52
2022-09-28T17:14:04.619Z,0.65
2022-09-28T17:17:06.211Z,0.55
2022-09-28T17:19:26.115Z,1.52
2022-09-28T17:21:54.894Z,4.75
2022-09-28T17:24:23.152Z,5.13
2022-09-28T17:26:52.904Z,3.80
2022-09-28T17:29:22.621Z,3.63
2022-09-28T17:31:51.116Z,2.50
2022-09-28T17:34:20.573Z,1.30
2022-09-28T17:36:49.196Z,1.60
2022-09-28T17:39:19.883Z,1.77
2022-09-28T17:41:48.137Z,1.70
2022-09-28T17:44:16.709Z,1.60
2022-09-28T17:46:49.771Z,4.15
2022-09-28T17:49:18.705Z,1.35
2022-09-28T17:51:47.001Z,0.47
2022-09-28T17:54:19.302Z,0.70
2022-09-28T17:56:47.683Z,0.82
2022-09-28T17:59:19.121Z,0.73
2022-09-28T18:01:48.924Z,0.82
2022-09-28T18:04:47.098Z,0.82
2022-09-28T18:07:06.597Z,0.70
2022-09-28T18:09:34.806Z,0.73
2022-09-28T18:12:06.353Z,1.20
2022-09-28T18:14:35.669Z,0.80
2022-09-28T18:17:05.189Z,0.95
2022-09-28T18:19:33.712Z,1.15
2022-09-28T18:22:02.269Z,1.30
2022-09-28T18:24:32.346Z,0.80
2022-09-28T18:27:00.826Z,1.00
2022-09-28T18:29:32.918Z,0.88
2022-09-28T18:32:02.468Z,0.80
2022-09-28T18:34:32.077Z,0.85
2022-09-28T18:37:00.555Z,1.02
2022-09-28T18:39:29.224Z,0.90
2022-09-28T18:41:58.226Z,1.17
2022-09-28T18:44:26.590Z,1.15
2022-09-28T18:46:55.139Z,0.98
2022-09-28T18:49:23.779Z,1.00
2022-09-28T18:51:53.403Z,1.00
2022-09-28T18:54:21.967Z,0.70
2022-09-28T18:56:51.224Z,1.05
2022-09-28T18:59:19.437Z,0.88
2022-09-28T19:01:48.059Z,1.05
2022-09-28T19:04:16.508Z,1.00
2022-09-28T19:06:47.472Z,0.75
2022-09-28T19:09:21.043Z,1.10
2022-09-28T19:11:50.350Z,1.10
2022-09-28T19:14:18.990Z,0.80
2022-09-28T19:16:47.365Z,1.00
2022-09-28T19:19:18.826Z,0.82
2022-09-28T19:21:47.912Z,1.30
2022-09-28T19:24:19.890Z,0.90
2022-09-28T19:26:48.823Z,1.08
2022-09-28T19:29:17.453Z,0.90
2022-09-28T19:31:46.187Z,0.93
2022-09-28T19:34:14.599Z,1.27
2022-09-28T19:36:43.261Z,1.33
2022-09-28T19:39:15.406Z,1.58
2022-09-28T19:41:49.413Z,1.13
2022-09-28T19:44:24.592Z,1.73
2022-09-28T19:46:55.216Z,1.48
2022-09-28T19:49:25.824Z,1.60
2022-09-28T19:52:12.306Z,1.30
2022-09-28T19:54:42.672Z,1.50
2022-09-28T19:57:15.820Z,1.90
2022-09-28T19:59:46.659Z,1.30
2022-09-28T20:02:17.820Z,2.40
2022-09-28T20:04:46.045Z,1.90
2022-09-28T20:07:14.406Z,2.13
2022-09-28T20:09:42.978Z,2.33
2022-09-28T20:12:12.784Z,2.15
2022-09-28T20:14:41.016Z,1.92
2022-09-28T20:17:10.267Z,2.00
2022-09-28T20:19:39.151Z,2.03
2022-09-28T20:22:07.373Z,2.22
2022-09-28T20:24:35.616Z,2.05
2022-09-28T20:27:03.913Z,2.70
2022-09-28T20:29:33.770Z,2.70
2022-09-28T20:32:03.874Z,2.47
2022-09-28T20:34:33.428Z,2.72
2022-09-28T20:37:01.773Z,3.10
2022-09-28T20:39:30.174Z,3.75
2022-09-28T20:41:58.345Z,3.75
2022-09-28T20:44:26.584Z,3.83
2022-09-28T20:46:56.678Z,3.60
2022-09-28T20:49:27.041Z,3.42
2022-09-28T20:51:55.586Z,3.72
2022-09-28T20:54:24.120Z,3.28
2022-09-28T20:56:52.428Z,3.60
2022-09-28T20:59:22.797Z,3.38
2022-09-28T21:01:51.726Z,3.42
2022-09-28T21:04:21.400Z,3.45
2022-09-28T21:06:49.631Z,4.07
2022-09-28T21:09:17.817Z,3.00
2022-09-28T21:11:46.694Z,2.75
2022-09-28T21:14:15.305Z,3.10
2022-09-28T21:16:43.663Z,3.22
2022-09-28T21:19:11.830Z,3.50
2022-09-28T21:21:41.440Z,3.40
2022-09-28T21:24:10.115Z,3.53
2022-09-28T21:26:39.073Z,3.03
2022-09-28T21:29:12.092Z,2.85
2022-09-28T21:31:42.455Z,3.30
2022-09-28T21:34:14.308Z,3.50
2022-09-28T21:36:44.002Z,3.00
2022-09-28T21:39:12.500Z,3.33
2022-09-28T21:41:41.032Z,3.22
2022-09-28T21:44:09.606Z,4.60
2022-09-28T21:46:39.369Z,4.03
2022-09-28T21:49:09.416Z,4.38
2022-09-28T21:51:38.480Z,5.72
2022-09-28T21:54:08.505Z,7.97
2022-09-28T21:56:37.024Z,6.63
2022-09-28T21:59:05.609Z,6.93
2022-09-28T22:01:34.041Z,3.85
2022-09-28T22:04:02.591Z,4.25
2022-09-28T22:06:31.140Z,4.07
2022-09-28T22:08:59.646Z,4.13
2022-09-28T22:11:29.874Z,3.90
2022-09-28T22:13:59.931Z,4.38
2022-09-28T22:16:31.468Z,4.47
2022-09-28T22:19:00.401Z,4.57
2022-09-28T22:21:31.791Z,4.93
2022-09-28T22:24:01.889Z,6.13
2022-09-28T22:26:34.707Z,6.75
2022-09-28T22:29:05.405Z,4.88
2022-09-28T22:31:36.026Z,4.45
2022-09-28T22:34:04.713Z,3.63
2022-09-28T22:36:33.463Z,3.80
2022-09-28T22:39:02.703Z,3.45
2022-09-28T22:41:32.969Z,3.45
2022-09-28T22:44:01.997Z,3.72
2022-09-28T22:46:32.813Z,5.45
2022-09-28T22:49:02.181Z,4.65
2022-09-28T22:51:31.589Z,3.65
2022-09-28T22:54:01.329Z,2.72
2022-09-28T22:56:30.662Z,3.13
2022-09-28T22:59:00.924Z,3.75
2022-09-28T23:01:30.877Z,3.88
2022-09-28T23:03:59.742Z,5.40
2022-09-28T23:06:30.984Z,5.97
2022-09-28T23:08:59.429Z,4.32
2022-09-28T23:11:28.448Z,4.50
2022-09-28T23:13:59.968Z,3.50
2022-09-28T23:16:30.029Z,2.65
2022-09-28T23:18:58.451Z,2.72
2022-09-28T23:21:28.245Z,3.13
2022-09-28T23:24:00.885Z,2.35
2022-09-28T23:26:32.894Z,3.42
2022-09-28T23:29:02.472Z,3.60
2022-09-28T23:31:33.636Z,3.25
2022-09-28T23:34:04.663Z,2.83
2022-09-28T23:36:33.932Z,2.90
2022-09-28T23:39:02.519Z,2.83
2022-09-28T23:41:31.332Z,2.67
2022-09-28T23:43:59.694Z,3.30
2022-09-28T23:46:29.314Z,2.72
2022-09-28T23:48:57.519Z,3.78
2022-09-28T23:51:25.800Z,3.35
2022-09-28T23:53:54.125Z,3.25
2022-09-28T23:56:22.320Z,4.00
2022-09-28T23:58:50.665Z,4.20
